createdAt,value
2023-04-03T00:00:17.069Z,95768.28
2023-04-03T00:02:45.568Z,95758.16
2023-04-03T00:05:12.145Z,95758.81
2023-04-03T00:07:38.649Z,95754.19
2023-04-03T00:10:05.562Z,95747.00
2023-04-03T00:12:32.029Z,95752.22
2023-04-03T00:14:58.554Z,95747.13
2023-04-03T00:17:25.099Z,95750.44
2023-04-03T00:19:51.727Z,95746.47
2023-04-03T00:22:18.189Z,95756.84
2023-04-03T00:24:44.678Z,95744.31
2023-04-03T00:27:11.149Z,95744.66
2023-04-03T00:29:37.615Z,95749.25
2023-04-03T00:32:04.164Z,95744.31
2023-04-03T00:34:30.649Z,95751.56
2023-04-03T00:36:58.054Z,95737.72
2023-04-03T00:39:24.561Z,95739.41
2023-04-03T00:41:51.061Z,95739.25
2023-04-03T00:44:29.366Z,95739.88
2023-04-03T00:46:55.856Z,95736.09
2023-04-03T00:49:22.497Z,95727.88
2023-04-03T00:51:49.593Z,95727.56
2023-04-03T00:54:16.191Z,95732.81
2023-04-03T00:56:44.368Z,95727.38
2023-04-03T00:59:21.269Z,95716.69
2023-04-03T01:01:47.917Z,95722.97
2023-04-03T01:04:39.966Z,95711.25
2023-04-03T01:07:14.958Z,95707.38
2023-04-03T01:09:42.021Z,95709.63
2023-04-03T01:12:21.850Z,95705.69
2023-04-03T01:14:52.478Z,95710.13
2023-04-03T01:17:40.747Z,95698.16
2023-04-03T01:20:30.244Z,95701.50
2023-04-03T01:23:12.070Z,95704.47
2023-04-03T01:25:43.056Z,95703.47
2023-04-03T01:28:14.271Z,95702.03
2023-04-03T01:30:47.208Z,95698.91
2023-04-03T01:33:16.238Z,95705.16
2023-04-03T01:35:42.703Z,95698.25
2023-04-03T01:38:09.265Z,95708.44
2023-04-03T01:40:35.970Z,95709.44
2023-04-03T01:43:02.645Z,95705.81
2023-04-03T01:45:29.196Z,95693.13
2023-04-03T01:47:55.768Z,95711.22
2023-04-03T01:50:22.222Z,95696.47
2023-04-03T01:52:48.762Z,95706.78
2023-04-03T01:55:15.468Z,95696.28
2023-04-03T01:57:42.006Z,95698.94
2023-04-03T02:00:09.100Z,95695.31
2023-04-03T02:02:35.669Z,95712.72
2023-04-03T02:05:02.248Z,95702.97
2023-04-03T02:07:28.756Z,95706.91
2023-04-03T02:09:55.209Z,95711.00
2023-04-03T02:12:21.685Z,95701.03
2023-04-03T02:14:48.143Z,95693.72
2023-04-03T02:17:14.601Z,95702.22
2023-04-03T02:19:41.215Z,95697.44
2023-04-03T02:22:07.933Z,95696.28
2023-04-03T02:24:34.443Z,95692.41
2023-04-03T02:27:01.028Z,95691.41
2023-04-03T02:29:27.548Z,95688.19
2023-04-03T02:31:54.052Z,95685.25
2023-04-03T02:34:20.542Z,95691.03
2023-04-03T02:36:47.035Z,95692.03
2023-04-03T02:39:13.568Z,95689.38
2023-04-03T02:41:40.116Z,95694.56
2023-04-03T02:44:07.910Z,95693.88
2023-04-03T02:46:34.477Z,95689.31
2023-04-03T02:49:00.983Z,95691.97
2023-04-03T02:51:27.496Z,95684.34
2023-04-03T02:53:54.002Z,95695.31
2023-04-03T02:56:20.766Z,95688.56
2023-04-03T02:58:47.404Z,95681.56
2023-04-03T03:01:17.018Z,95684.06
2023-04-03T03:03:43.523Z,95685.13
2023-04-03T03:06:13.033Z,95679.50
2023-04-03T03:08:39.877Z,95685.63
2023-04-03T03:11:06.736Z,95686.78
2023-04-03T03:13:33.863Z,95683.38
2023-04-03T03:16:01.145Z,95678.69
2023-04-03T03:18:27.694Z,95677.94
2023-04-03T03:20:56.342Z,95687.78
2023-04-03T03:23:25.264Z,95682.34
2023-04-03T03:26:00.905Z,95670.03
2023-04-03T03:28:27.577Z,95670.00
2023-04-03T03:30:54.109Z,95666.09
2023-04-03T03:33:20.629Z,95671.50
2023-04-03T03:35:47.365Z,95671.75
2023-04-03T03:38:13.855Z,95659.94
2023-04-03T03:40:40.515Z,95657.41
2023-04-03T03:43:07.071Z,95660.94
2023-04-03T03:45:33.556Z,95666.41
2023-04-03T03:48:00.400Z,95661.44
2023-04-03T03:50:26.962Z,95671.09
2023-04-03T03:52:53.558Z,95671.81
2023-04-03T03:55:20.224Z,95661.16
2023-04-03T03:57:46.740Z,95667.31
2023-04-03T04:00:14.118Z,95671.81
2023-04-03T04:02:40.690Z,95670.22
2023-04-03T04:05:07.648Z,95657.75
2023-04-03T04:07:34.105Z,95670.78
2023-04-03T04:10:00.609Z,95673.09
2023-04-03T04:12:27.105Z,95671.84
2023-04-03T04:14:53.569Z,95664.19
2023-04-03T04:17:20.203Z,95675.28
2023-04-03T04:19:46.701Z,95672.09
2023-04-03T04:22:13.182Z,95664.94
2023-04-03T04:24:39.987Z,95662.28
2023-04-03T04:27:15.548Z,95661.94
2023-04-03T04:29:42.054Z,95659.31
2023-04-03T04:32:08.553Z,95646.34
2023-04-03T04:34:35.436Z,95660.47
2023-04-03T04:37:02.047Z,95657.09
2023-04-03T04:39:28.628Z,95650.75
2023-04-03T04:41:55.132Z,95655.28
2023-04-03T04:44:21.854Z,95646.22
2023-04-03T04:46:48.362Z,95653.22
2023-04-03T04:49:14.849Z,95649.22
2023-04-03T04:51:51.616Z,95661.97
2023-04-03T04:54:19.386Z,95663.84
2023-04-03T04:56:45.899Z,95659.19
2023-04-03T04:59:12.743Z,95661.56
2023-04-03T05:01:39.924Z,95657.72
2023-04-03T05:04:06.477Z,95652.78
2023-04-03T05:06:33.151Z,95658.72
2023-04-03T05:08:59.938Z,95653.84
2023-04-03T05:11:26.423Z,95662.19
2023-04-03T05:13:52.904Z,95662.53
2023-04-03T05:16:19.461Z,95670.06
2023-04-03T05:18:46.013Z,95667.88
2023-04-03T05:21:12.517Z,95661.50
2023-04-03T05:23:39.063Z,95667.19
2023-04-03T05:26:17.125Z,95665.47
2023-04-03T05:28:43.597Z,95663.16
2023-04-03T05:31:10.183Z,95663.22
2023-04-03T05:33:36.720Z,95662.88
2023-04-03T05:36:06.843Z,95662.69
2023-04-03T05:38:33.530Z,95669.00
2023-04-03T05:41:00.110Z,95666.91
2023-04-03T05:43:26.592Z,95663.94
2023-04-03T05:45:53.345Z,95670.19
2023-04-03T05:48:19.867Z,95665.41
2023-04-03T05:50:47.226Z,95673.41
2023-04-03T05:53:22.096Z,95653.69
2023-04-03T05:55:48.612Z,95667.38
2023-04-03T06:00:29.332Z,95669.47
2023-04-03T06:02:56.096Z,95666.25
2023-04-03T06:05:22.644Z,95670.34
2023-04-03T06:07:49.124Z,95654.31
2023-04-03T06:10:15.588Z,95668.94
2023-04-03T06:12:42.056Z,95677.63
2023-04-03T06:15:08.987Z,95671.69
2023-04-03T06:17:35.535Z,95667.59
2023-04-03T06:20:02.131Z,95672.59
2023-04-03T06:22:28.809Z,95662.91
2023-04-03T06:24:55.304Z,95661.94
2023-04-03T06:27:21.906Z,95648.25
2023-04-03T06:29:48.437Z,95669.06
2023-04-03T06:32:15.664Z,95673.91
2023-04-03T06:34:42.465Z,95674.78
2023-04-03T06:37:17.544Z,95667.97
2023-04-03T06:39:44.374Z,95668.25
2023-04-03T06:42:10.898Z,95679.00
2023-04-03T06:44:38.065Z,95689.13
2023-04-03T06:47:04.713Z,95677.47
2023-04-03T06:49:31.443Z,95686.19
2023-04-03T06:51:59.292Z,95693.66
2023-04-03T06:54:27.384Z,95680.00
2023-04-03T06:56:54.050Z,95689.03
2023-04-03T06:59:20.543Z,95691.75
2023-04-03T07:01:47.032Z,95697.09
2023-04-03T07:04:13.677Z,95698.44
2023-04-03T07:06:40.150Z,95691.28
2023-04-03T07:09:06.732Z,95685.94
2023-04-03T07:11:33.239Z,95677.13
2023-04-03T07:13:59.755Z,95682.13
2023-04-03T07:16:26.391Z,95683.28
2023-04-03T07:18:53.033Z,95692.50
2023-04-03T07:21:19.690Z,95678.94
2023-04-03T07:23:46.280Z,95699.19
2023-04-03T07:26:12.755Z,95704.22
2023-04-03T07:28:39.280Z,95706.13
2023-04-03T07:31:07.881Z,95694.75
2023-04-03T07:33:35.961Z,95693.66
2023-04-03T07:36:02.910Z,95707.56
2023-04-03T07:38:29.440Z,95706.66
2023-04-03T07:40:55.942Z,95707.47
2023-04-03T07:43:23.149Z,95715.72
2023-04-03T07:45:50.376Z,95717.16
2023-04-03T07:48:21.603Z,95722.59
2023-04-03T07:50:48.131Z,95718.22
2023-04-03T07:53:15.411Z,95715.41
2023-04-03T07:55:42.336Z,95717.97
2023-04-03T07:58:13.153Z,95717.41
2023-04-03T08:00:40.380Z,95722.09
2023-04-03T08:03:11.257Z,95719.63
2023-04-03T08:05:43.631Z,95720.69
2023-04-03T08:08:12.760Z,95707.25
2023-04-03T08:10:40.414Z,95718.09
2023-04-03T08:13:09.232Z,95717.91
2023-04-03T08:15:36.398Z,95707.50
2023-04-03T08:18:03.765Z,95706.22
2023-04-03T08:20:30.294Z,95712.41
2023-04-03T08:22:57.013Z,95700.03
2023-04-03T08:25:23.984Z,95712.28
2023-04-03T08:27:50.611Z,95691.81
2023-04-03T08:30:17.203Z,95704.03
2023-04-03T08:32:43.735Z,95698.97
2023-04-03T08:35:10.627Z,95695.13
2023-04-03T08:37:38.608Z,95695.28
2023-04-03T08:40:08.282Z,95711.78
2023-04-03T08:43:01.534Z,95715.88
2023-04-03T08:45:53.061Z,95710.41
2023-04-03T08:48:27.821Z,95732.19
2023-04-03T08:51:03.206Z,95717.28
2023-04-03T08:53:36.050Z,95713.72
2023-04-03T08:56:11.082Z,95730.72
2023-04-03T08:58:51.366Z,95730.47
2023-04-03T09:01:17.809Z,95723.72
2023-04-03T09:03:44.436Z,95718.13
2023-04-03T09:06:20.780Z,95731.28
2023-04-03T09:09:07.255Z,95723.41
2023-04-03T09:11:59.529Z,95717.63
2023-04-03T09:14:38.038Z,95719.84
2023-04-03T09:17:17.286Z,95706.75
2023-04-03T09:19:54.080Z,95722.88
2023-04-03T09:22:36.453Z,95728.88
2023-04-03T09:25:16.351Z,95729.13
2023-04-03T09:27:43.582Z,95728.28
2023-04-03T09:30:22.496Z,95719.91
2023-04-03T09:32:52.550Z,95712.59
2023-04-03T09:35:44.818Z,95723.16
2023-04-03T09:38:14.366Z,95709.22
2023-04-03T09:40:43.784Z,95721.63
2023-04-03T09:43:32.548Z,95732.38
2023-04-03T09:46:19.307Z,95731.84
2023-04-03T09:49:08.301Z,95743.25
2023-04-03T09:51:37.901Z,95712.47
2023-04-03T09:54:32.151Z,95724.25
2023-04-03T09:57:07.008Z,95719.00
2023-04-03T09:59:34.343Z,95713.34
2023-04-03T10:02:20.246Z,95729.91
2023-04-03T10:04:48.936Z,95721.59
2023-04-03T10:07:54.493Z,95742.66
2023-04-03T10:10:24.748Z,95722.84
2023-04-03T10:13:20.991Z,95704.22
2023-04-03T10:16:00.118Z,95709.03
2023-04-03T10:18:50.453Z,95715.88
2023-04-03T10:21:29.249Z,95722.91
2023-04-03T10:24:35.750Z,95720.00
2023-04-03T10:27:24.008Z,95720.69
2023-04-03T10:30:04.710Z,95720.72
2023-04-03T10:32:46.209Z,95708.25
2023-04-03T10:35:22.653Z,95723.22
2023-04-03T10:37:57.902Z,95715.53
2023-04-03T10:40:33.868Z,95701.25
2023-04-03T10:43:40.575Z,95719.31
2023-04-03T10:46:25.819Z,95708.84
2023-04-03T10:49:29.338Z,95725.03
2023-04-03T10:52:10.586Z,95705.84
2023-04-03T10:54:48.754Z,95715.97
2023-04-03T10:57:15.575Z,95719.19
2023-04-03T10:59:54.308Z,95721.41
2023-04-03T11:02:37.571Z,95704.25
2023-04-03T11:05:18.911Z,95702.09
2023-04-03T11:07:52.288Z,95708.84
2023-04-03T11:10:25.287Z,95707.06
2023-04-03T11:13:07.574Z,95699.44
2023-04-03T11:15:34.240Z,95710.31
2023-04-03T11:18:12.050Z,95718.72
2023-04-03T11:20:47.891Z,95710.50
2023-04-03T11:23:28.369Z,95705.69
2023-04-03T11:26:14.251Z,95705.25
2023-04-03T11:28:42.135Z,95700.59
2023-04-03T11:31:34.357Z,95691.56
2023-04-03T11:34:32.312Z,95694.41
2023-04-03T11:37:02.185Z,95688.50
2023-04-03T11:39:38.415Z,95687.56
2023-04-03T11:42:32.164Z,95699.09
2023-04-03T11:45:23.804Z,95681.28
2023-04-03T11:47:59.665Z,95685.22
2023-04-03T11:50:39.749Z,95680.59
2023-04-03T11:53:09.207Z,95672.69
2023-04-03T11:55:35.856Z,95685.09
2023-04-03T11:58:04.753Z,95670.78
2023-04-03T12:00:46.257Z,95677.00
2023-04-03T12:03:25.164Z,95669.38
2023-04-03T12:05:52.466Z,95669.34
2023-04-03T12:08:30.909Z,95664.06
2023-04-03T12:11:09.245Z,95652.31
2023-04-03T12:13:39.668Z,95663.97
2023-04-03T12:16:08.526Z,95661.53
2023-04-03T12:18:38.018Z,95670.09
2023-04-03T12:21:07.198Z,95656.88
2023-04-03T12:23:56.520Z,95663.03
2023-04-03T12:26:35.382Z,95665.78
2023-04-03T12:29:21.440Z,95660.00
2023-04-03T12:32:14.487Z,95679.03
2023-04-03T12:34:53.001Z,95677.72
2023-04-03T12:37:49.086Z,95665.81
2023-04-03T12:40:44.649Z,95664.13
2023-04-03T12:43:41.086Z,95654.19
2023-04-03T12:46:07.576Z,95646.03
2023-04-03T12:48:54.144Z,95654.44
2023-04-03T12:51:30.926Z,95644.69
2023-04-03T12:54:13.438Z,95649.72
2023-04-03T12:56:40.273Z,95635.66
2023-04-03T12:59:32.748Z,95648.44
2023-04-03T13:02:03.090Z,95639.66
2023-04-03T13:04:32.586Z,95642.47
2023-04-03T13:07:00.597Z,95634.03
2023-04-03T13:09:32.318Z,95617.44
2023-04-03T13:12:14.157Z,95629.16
2023-04-03T13:14:41.477Z,95622.16
2023-04-03T13:17:15.376Z,95628.69
2023-04-03T13:19:42.821Z,95610.13
2023-04-03T13:22:28.236Z,95612.19
2023-04-03T13:25:02.012Z,95612.94
2023-04-03T13:27:32.933Z,95602.84
2023-04-03T13:30:02.908Z,95621.00
2023-04-03T13:32:32.333Z,95605.84
2023-04-03T13:35:08.164Z,95613.41
2023-04-03T13:37:38.498Z,95604.84
2023-04-03T13:40:13.431Z,95586.19
2023-04-03T13:42:42.392Z,95595.13
2023-04-03T13:45:26.458Z,95601.63
2023-04-03T13:48:20.232Z,95598.19
2023-04-03T13:51:01.647Z,95603.91
2023-04-03T13:53:31.547Z,95599.19
2023-04-03T13:56:09.164Z,95584.09
2023-04-03T13:58:37.361Z,95588.63
2023-04-03T14:01:20.397Z,95592.22
2023-04-03T14:04:00.056Z,95590.72
2023-04-03T14:06:26.612Z,95590.75
2023-04-03T14:08:53.487Z,95591.25
2023-04-03T14:11:29.512Z,95596.06
2023-04-03T14:14:02.251Z,95604.69
2023-04-03T14:16:35.482Z,95591.78
2023-04-03T14:19:01.987Z,95608.44
2023-04-03T14:21:28.461Z,95591.50
2023-04-03T14:23:55.464Z,95594.59
2023-04-03T14:26:24.993Z,95591.78
2023-04-03T14:28:55.011Z,95586.22
2023-04-03T14:31:22.587Z,95589.13
2023-04-03T14:33:49.509Z,95574.53
2023-04-03T14:36:30.867Z,95569.56
2023-04-03T14:39:00.807Z,95571.19
2023-04-03T14:41:28.186Z,95571.88
2023-04-03T14:43:54.653Z,95566.16
2023-04-03T14:46:48.262Z,95573.69
2023-04-03T14:49:28.049Z,95549.59
2023-04-03T14:51:54.697Z,95560.84
2023-04-03T14:54:23.360Z,95565.72
2023-04-03T14:56:49.857Z,95568.94
2023-04-03T14:59:16.331Z,95563.53
2023-04-03T15:01:43.874Z,95570.97
2023-04-03T15:04:16.692Z,95567.63
2023-04-03T15:06:44.555Z,95545.34
2023-04-03T15:09:25.791Z,95565.66
2023-04-03T15:11:54.524Z,95566.44
2023-04-03T15:14:35.280Z,95577.84
2023-04-03T15:17:06.046Z,95560.34
2023-04-03T15:19:39.612Z,95570.53
2023-04-03T15:22:06.901Z,95556.91
2023-04-03T15:24:33.580Z,95557.75
2023-04-03T15:27:02.247Z,95561.06
2023-04-03T15:29:28.817Z,95570.59
2023-04-03T15:31:55.455Z,95543.78
2023-04-03T15:34:21.992Z,95541.50
2023-04-03T15:36:48.490Z,95547.25
2023-04-03T15:39:15.017Z,95547.59
2023-04-03T15:41:41.511Z,95551.34
2023-04-03T15:44:07.997Z,95531.25
2023-04-03T15:46:34.549Z,95540.78
2023-04-03T15:49:02.238Z,95544.31
2023-04-03T15:51:28.700Z,95539.47
2023-04-03T15:53:55.203Z,95531.38
2023-04-03T15:56:21.787Z,95539.53
2023-04-03T15:58:48.315Z,95532.31
2023-04-03T16:01:15.499Z,95526.75
2023-04-03T16:03:44.539Z,95528.69
2023-04-03T16:06:12.416Z,95539.25
2023-04-03T16:08:39.207Z,95545.44
2023-04-03T16:11:05.701Z,95555.63
2023-04-03T16:13:32.209Z,95537.25
2023-04-03T16:15:58.773Z,95534.50
2023-04-03T16:18:25.337Z,95545.44
2023-04-03T16:20:51.937Z,95542.31
2023-04-03T16:25:50.496Z,95538.03
2023-04-03T16:28:18.557Z,95528.63
2023-04-03T16:30:47.984Z,95540.06
2023-04-03T16:33:14.809Z,95544.81
2023-04-03T16:35:41.520Z,95532.09
2023-04-03T16:38:08.239Z,95547.94
2023-04-03T16:40:35.142Z,95540.88
2023-04-03T16:43:02.934Z,95546.50
2023-04-03T16:45:29.567Z,95550.53
2023-04-03T16:47:56.037Z,95555.41
2023-04-03T16:50:22.757Z,95564.28
2023-04-03T16:52:49.895Z,95562.81
2023-04-03T16:55:16.528Z,95567.09
2023-04-03T16:57:43.093Z,95581.25
2023-04-03T17:00:10.433Z,95564.66
2023-04-03T17:02:37.930Z,95570.63
2023-04-03T17:05:04.835Z,95571.94
2023-04-03T17:07:31.593Z,95586.41
2023-04-03T17:09:58.254Z,95588.13
2023-04-03T17:12:25.181Z,95581.47
2023-04-03T17:14:51.819Z,95584.19
2023-04-03T17:17:24.393Z,95588.34
2023-04-03T17:19:51.037Z,95576.19
2023-04-03T17:22:17.616Z,95573.34
2023-04-03T17:24:44.630Z,95561.34
2023-04-03T17:27:11.114Z,95576.31
2023-04-03T17:29:37.706Z,95575.72
2023-04-03T17:32:04.534Z,95575.75
2023-04-03T17:34:31.071Z,95578.09
2023-04-03T17:36:57.604Z,95580.72
2023-04-03T17:39:24.135Z,95575.13
2023-04-03T17:41:50.790Z,95584.72
2023-04-03T17:44:17.251Z,95593.84
2023-04-03T17:46:43.791Z,95582.91
2023-04-03T17:49:10.394Z,95579.63
2023-04-03T17:51:36.867Z,95578.75
2023-04-03T17:54:03.426Z,95585.88
2023-04-03T17:56:29.918Z,95572.59
2023-04-03T17:58:57.163Z,95580.19
2023-04-03T18:01:29.597Z,95571.72
2023-04-03T18:03:59.299Z,95586.44
2023-04-03T18:06:33.249Z,95583.34
2023-04-03T18:09:09.701Z,95578.78
2023-04-03T18:11:36.211Z,95577.41
2023-04-03T18:14:06.579Z,95573.09
2023-04-03T18:16:34.399Z,95581.75
2023-04-03T18:19:12.115Z,95574.88
2023-04-03T18:21:47.589Z,95577.56
2023-04-03T18:24:17.383Z,95575.63
2023-04-03T18:26:48.077Z,95594.50
2023-04-03T18:29:15.093Z,95586.41
2023-04-03T18:31:47.751Z,95580.75
2023-04-03T18:34:14.282Z,95587.50
2023-04-03T18:36:40.887Z,95585.31
2023-04-03T18:39:07.846Z,95588.47
2023-04-03T18:41:38.370Z,95576.91
2023-04-03T18:44:10.233Z,95585.69
2023-04-03T18:49:10.939Z,95588.44
2023-04-03T18:51:37.600Z,95595.63
2023-04-03T18:54:05.227Z,95589.28
2023-04-03T18:56:32.180Z,95592.31
2023-04-03T18:58:58.709Z,95602.59
2023-04-03T19:01:25.567Z,95601.94
2023-04-03T19:03:52.453Z,95587.91
2023-04-03T19:06:19.257Z,95599.72
2023-04-03T19:08:46.574Z,95598.88
2023-04-03T19:11:13.127Z,95599.72
2023-04-03T19:13:47.143Z,95587.66
2023-04-03T19:16:26.090Z,95606.44
2023-04-03T19:18:52.637Z,95598.63
2023-04-03T19:21:19.144Z,95602.72
2023-04-03T19:23:45.639Z,95615.94
2023-04-03T19:26:13.254Z,95601.59
2023-04-03T19:28:40.475Z,95604.69
2023-04-03T19:31:16.728Z,95608.25
2023-04-03T19:33:44.135Z,95606.31
2023-04-03T19:36:11.952Z,95617.31
2023-04-03T19:38:38.627Z,95613.59
2023-04-03T19:41:09.499Z,95617.19
2023-04-03T19:43:36.020Z,95611.84
2023-04-03T19:46:03.034Z,95602.75
2023-04-03T19:48:29.525Z,95615.53
2023-04-03T19:50:56.059Z,95612.03
2023-04-03T19:53:22.584Z,95609.00
2023-04-03T19:55:49.140Z,95615.06
2023-04-03T19:58:15.882Z,95605.81
2023-04-03T20:00:42.448Z,95593.94
2023-04-03T20:03:09.190Z,95606.97
2023-04-03T20:05:35.775Z,95595.16
2023-04-03T20:08:02.252Z,95596.81
2023-04-03T20:10:28.720Z,95597.00
2023-04-03T20:12:55.206Z,95609.72
2023-04-03T20:15:21.732Z,95609.88
2023-04-03T20:17:48.325Z,95598.13
2023-04-03T20:20:15.464Z,95592.72
2023-04-03T20:22:42.296Z,95587.03
2023-04-03T20:25:12.249Z,95598.16
2023-04-03T20:27:38.895Z,95595.22
2023-04-03T20:30:07.600Z,95602.03
2023-04-03T20:32:34.768Z,95586.31
2023-04-03T20:35:04.193Z,95585.94
2023-04-03T20:37:31.577Z,95588.59
2023-04-03T20:39:58.098Z,95580.09
2023-04-03T20:42:24.597Z,95574.81
2023-04-03T20:44:51.041Z,95577.00
2023-04-03T20:47:17.630Z,95587.50
2023-04-03T20:49:44.151Z,95566.09
2023-04-03T20:52:10.630Z,95577.66
2023-04-03T20:54:37.127Z,95577.53
2023-04-03T20:57:03.711Z,95571.78
2023-04-03T20:59:30.334Z,95561.19
2023-04-03T21:01:56.888Z,95562.84
2023-04-03T21:04:51.153Z,95560.19
2023-04-03T21:07:55.224Z,95565.09
2023-04-03T21:10:59.232Z,95564.00
2023-04-03T21:14:03.018Z,95552.06
2023-04-03T21:16:29.464Z,95547.19
2023-04-03T21:19:15.239Z,95548.53
2023-04-03T21:21:42.963Z,95559.34
2023-04-03T21:24:10.315Z,95560.50
2023-04-03T21:26:38.652Z,95553.81
2023-04-03T21:29:08.770Z,95548.19
2023-04-03T21:31:51.730Z,95537.88
2023-04-03T21:34:19.873Z,95537.53
2023-04-03T21:36:46.707Z,95548.31
2023-04-03T21:39:13.198Z,95548.91
2023-04-03T21:41:39.723Z,95554.50
2023-04-03T21:44:06.221Z,95537.78
2023-04-03T21:46:32.886Z,95542.34
2023-04-03T21:48:59.372Z,95539.84
2023-04-03T21:51:25.832Z,95541.63
2023-04-03T21:53:53.520Z,95537.66
2023-04-03T21:56:20.798Z,95542.97
2023-04-03T21:58:47.396Z,95538.19
2023-04-03T22:01:15.420Z,95538.16
2023-04-03T22:03:43.378Z,95546.19
2023-04-03T22:06:11.650Z,95529.81
2023-04-03T22:08:38.624Z,95539.03
2023-04-03T22:11:10.672Z,95529.06
2023-04-03T22:13:37.583Z,95522.50
2023-04-03T22:16:04.656Z,95534.22
2023-04-03T22:18:32.132Z,95527.13
2023-04-03T22:20:58.766Z,95540.72
2023-04-03T22:23:25.292Z,95553.56
2023-04-03T22:26:02.009Z,95531.91
2023-04-03T22:28:30.242Z,95531.31
2023-04-03T22:30:56.714Z,95535.03
2023-04-03T22:33:23.298Z,95537.56
2023-04-03T22:35:50.132Z,95533.31
2023-04-03T22:38:17.016Z,95533.00
2023-04-03T22:40:44.275Z,95538.97
2023-04-03T22:43:11.302Z,95550.50
2023-04-03T22:45:47.549Z,95547.25
2023-04-03T22:48:14.087Z,95548.22
2023-04-03T22:50:40.837Z,95541.63
2023-04-03T22:53:07.436Z,95535.41
2023-04-03T22:55:33.891Z,95526.72
2023-04-03T22:58:00.378Z,95546.72
2023-04-03T23:00:27.024Z,95549.25
2023-04-03T23:02:58.315Z,95548.53
2023-04-03T23:05:25.026Z,95559.25
2023-04-03T23:07:52.132Z,95540.38
2023-04-03T23:10:18.574Z,95550.00
2023-04-03T23:12:45.030Z,95547.69
2023-04-03T23:15:11.605Z,95543.47
2023-04-03T23:17:38.313Z,95542.97
2023-04-03T23:20:05.490Z,95545.91
2023-04-03T23:22:32.001Z,95549.25
2023-04-03T23:24:58.500Z,95552.53
2023-04-03T23:27:24.991Z,95548.53
2023-04-03T23:29:51.473Z,95559.34
2023-04-03T23:32:17.973Z,95554.84
2023-04-03T23:34:44.464Z,95553.13
2023-04-03T23:37:14.022Z,95554.78
2023-04-03T23:39:40.495Z,95552.38
2023-04-03T23:42:07.021Z,95546.94
2023-04-03T23:44:33.501Z,95543.19
2023-04-03T23:46:59.932Z,95541.59
2023-04-03T23:49:26.483Z,95542.97
2023-04-03T23:51:52.963Z,95537.69
2023-04-03T23:54:19.566Z,95519.28
2023-04-03T23:56:46.006Z,95546.47
2023-04-03T23:59:12.528Z,95541.38
